createdAt,value
2018-11-29T00:01:05.502Z,3.10
2018-11-29T00:03:34.544Z,3.10
2018-11-29T00:06:03.528Z,3.10
2018-11-29T00:08:32.571Z,3.10
2018-11-29T00:11:01.901Z,3.10
2018-11-29T00:13:30.916Z,3.00
2018-11-29T00:16:00.011Z,3.10
2018-11-29T00:18:28.975Z,3.00
2018-11-29T00:20:58.035Z,3.10
2018-11-29T00:23:27.363Z,3.10
2018-11-29T00:25:56.426Z,3.00
2018-11-29T00:28:26.911Z,3.10
2018-11-29T00:30:55.970Z,3.10
2018-11-29T00:33:25.150Z,3.10
2018-11-29T00:35:54.161Z,3.00
2018-11-29T00:38:23.171Z,3.00
2018-11-29T00:40:52.593Z,3.00
2018-11-29T00:43:21.827Z,3.00
2018-11-29T00:45:50.834Z,3.00
2018-11-29T00:48:19.762Z,3.00
2018-11-29T00:50:48.910Z,3.00
2018-11-29T00:53:18.929Z,3.00
2018-11-29T00:55:47.915Z,3.00
2018-11-29T00:58:16.873Z,3.00
2018-11-29T01:00:45.946Z,3.00
2018-11-29T01:03:16.195Z,2.90
2018-11-29T01:05:45.232Z,3.00
2018-11-29T01:08:14.207Z,2.90
2018-11-29T01:10:43.181Z,2.90
2018-11-29T01:13:12.211Z,3.00
2018-11-29T01:15:41.176Z,3.00
2018-11-29T01:18:10.131Z,3.00
2018-11-29T01:20:39.871Z,3.00
2018-11-29T01:23:08.870Z,2.90
2018-11-29T01:25:37.981Z,2.90
2018-11-29T01:28:06.989Z,3.00
2018-11-29T01:30:36.083Z,2.90
2018-11-29T01:33:05.079Z,2.90
2018-11-29T01:35:34.415Z,3.00
2018-11-29T01:38:04.168Z,2.90
2018-11-29T01:40:33.171Z,2.90
2018-11-29T01:43:02.196Z,2.90
2018-11-29T01:45:31.206Z,2.90
2018-11-29T01:48:00.200Z,2.90
2018-11-29T01:50:29.472Z,2.90
2018-11-29T01:52:59.591Z,2.90
2018-11-29T01:55:28.923Z,3.00
2018-11-29T01:57:58.432Z,2.90
2018-11-29T02:00:27.611Z,3.00
2018-11-29T02:02:56.669Z,3.00
2018-11-29T02:05:25.634Z,3.00
2018-11-29T02:07:54.751Z,3.00
2018-11-29T02:10:26.832Z,3.00
2018-11-29T02:12:56.296Z,3.00
2018-11-29T02:15:25.395Z,3.00
2018-11-29T02:17:54.388Z,2.90
2018-11-29T02:20:23.824Z,3.00
2018-11-29T02:22:52.858Z,3.00
2018-11-29T02:25:22.292Z,2.90
2018-11-29T02:27:51.478Z,2.90
2018-11-29T02:30:23.426Z,3.00
2018-11-29T02:32:52.682Z,2.90
2018-11-29T02:35:21.638Z,2.90
2018-11-29T02:37:50.642Z,2.90
2018-11-29T02:40:19.690Z,3.00
2018-11-29T02:42:49.552Z,3.00
2018-11-29T02:45:20.751Z,3.00
2018-11-29T02:47:49.886Z,3.10
2018-11-29T02:50:18.975Z,3.10
2018-11-29T02:52:49.412Z,3.10
2018-11-29T02:55:18.383Z,3.10
2018-11-29T02:57:47.556Z,3.10
2018-11-29T03:00:18.511Z,3.10
2018-11-29T03:02:48.127Z,3.20
2018-11-29T03:05:17.692Z,3.20
2018-11-29T03:07:46.640Z,3.20
2018-11-29T03:10:20.077Z,3.20
2018-11-29T03:12:49.253Z,3.20
2018-11-29T03:15:18.324Z,3.20
2018-11-29T03:17:47.472Z,3.20
2018-11-29T03:20:16.512Z,3.10
2018-11-29T03:22:45.523Z,3.10
2018-11-29T03:25:15.725Z,3.20
2018-11-29T03:27:44.885Z,3.20
2018-11-29T03:30:17.367Z,3.20
2018-11-29T03:32:46.317Z,3.10
2018-11-29T03:35:15.938Z,3.20
2018-11-29T03:37:44.964Z,3.20
2018-11-29T03:40:14.878Z,3.20
2018-11-29T03:42:44.547Z,3.20
2018-11-29T03:45:15.226Z,3.10
2018-11-29T03:47:44.546Z,3.10
2018-11-29T03:50:15.879Z,3.20
2018-11-29T03:52:44.894Z,3.10
2018-11-29T03:55:14.008Z,3.10
2018-11-29T03:57:42.952Z,3.10
2018-11-29T04:00:17.131Z,3.10
2018-11-29T04:02:47.035Z,3.10
2018-11-29T04:05:16.101Z,3.20
2018-11-29T04:07:45.134Z,3.20
2018-11-29T04:10:15.254Z,3.20
2018-11-29T04:12:44.239Z,3.20
2018-11-29T04:15:14.344Z,3.20
2018-11-29T04:17:43.970Z,3.20
2018-11-29T04:20:16.048Z,3.20
2018-11-29T04:22:45.072Z,3.20
2018-11-29T04:25:14.903Z,3.20
2018-11-29T04:27:43.881Z,3.20
2018-11-29T04:30:14.551Z,3.30
2018-11-29T04:32:43.546Z,3.20
2018-11-29T04:35:12.948Z,3.30
2018-11-29T04:37:42.296Z,3.30
2018-11-29T04:40:15.150Z,3.30
2018-11-29T04:42:45.061Z,3.20
2018-11-29T04:45:15.134Z,3.20
2018-11-29T04:47:44.166Z,3.20
2018-11-29T04:50:13.545Z,3.20
2018-11-29T04:52:42.707Z,3.30
2018-11-29T04:55:12.867Z,3.30
2018-11-29T04:57:41.957Z,3.30
2018-11-29T05:00:16.087Z,3.30
2018-11-29T05:02:45.711Z,3.30
2018-11-29T05:05:14.873Z,3.30
2018-11-29T05:07:43.822Z,3.30
2018-11-29T05:10:16.463Z,3.30
2018-11-29T05:12:46.090Z,3.30
2018-11-29T05:15:15.315Z,3.30
2018-11-29T05:17:44.294Z,3.30
2018-11-29T05:20:13.260Z,3.30
2018-11-29T05:22:42.847Z,3.30
2018-11-29T05:25:11.829Z,3.30
2018-11-29T05:27:40.777Z,3.30
2018-11-29T05:30:13.692Z,3.30
2018-11-29T05:32:43.171Z,3.30
2018-11-29T05:35:12.580Z,3.30
2018-11-29T05:37:42.471Z,3.30
2018-11-29T05:40:12.601Z,3.30
2018-11-29T05:42:41.816Z,3.30
2018-11-29T05:45:11.398Z,3.30
2018-11-29T05:47:40.393Z,3.40
2018-11-29T05:50:11.533Z,3.40
2018-11-29T05:52:41.868Z,3.40
2018-11-29T05:55:11.070Z,3.40
2018-11-29T05:57:40.170Z,3.40
2018-11-29T06:00:12.032Z,3.40
2018-11-29T06:02:41.060Z,3.30
2018-11-29T06:05:11.222Z,3.30
2018-11-29T06:07:40.208Z,3.30
2018-11-29T06:10:09.212Z,3.30
2018-11-29T06:12:38.232Z,3.30
2018-11-29T06:15:09.318Z,3.30
2018-11-29T06:17:38.293Z,3.30
2018-11-29T06:20:12.135Z,3.40
2018-11-29T06:22:41.123Z,3.30
2018-11-29T06:25:10.669Z,3.40
2018-11-29T06:27:39.627Z,3.40
2018-11-29T06:30:21.526Z,3.40
2018-11-29T06:32:52.467Z,3.40
2018-11-29T06:35:21.413Z,3.40
2018-11-29T06:37:50.821Z,3.40
2018-11-29T06:40:19.998Z,3.40
2018-11-29T06:42:49.214Z,3.40
2018-11-29T06:45:19.210Z,3.40
2018-11-29T06:47:49.299Z,3.40
2018-11-29T06:50:18.347Z,3.40
2018-11-29T06:52:49.490Z,3.50
2018-11-29T06:55:22.022Z,3.50
2018-11-29T06:57:51.571Z,3.50
2018-11-29T07:00:31.414Z,3.40
2018-11-29T07:03:00.489Z,3.50
2018-11-29T07:05:30.894Z,3.40
2018-11-29T07:07:59.932Z,3.40
2018-11-29T07:10:32.129Z,3.40
2018-11-29T07:13:01.768Z,3.40
2018-11-29T07:15:31.598Z,3.50
2018-11-29T07:18:00.701Z,3.50
2018-11-29T07:20:29.709Z,3.50
2018-11-29T07:22:59.511Z,3.50
2018-11-29T07:25:28.519Z,3.50
2018-11-29T07:27:58.422Z,3.50
2018-11-29T07:30:27.482Z,3.50
2018-11-29T07:32:57.068Z,3.50
2018-11-29T07:35:26.139Z,3.60
2018-11-29T07:37:55.314Z,3.60
2018-11-29T07:40:25.133Z,3.60
2018-11-29T07:42:55.220Z,3.50
2018-11-29T07:45:24.610Z,3.50
2018-11-29T07:47:53.993Z,3.60
2018-11-29T07:50:23.526Z,3.60
2018-11-29T07:52:52.603Z,3.70
2018-11-29T07:55:22.497Z,3.70
2018-11-29T07:57:52.629Z,3.70
2018-11-29T08:00:21.802Z,3.70
2018-11-29T08:02:50.918Z,3.80
2018-11-29T08:05:20.031Z,3.80
2018-11-29T08:07:49.375Z,3.90
2018-11-29T08:10:19.293Z,3.90
2018-11-29T08:12:48.574Z,3.90
2018-11-29T08:15:20.223Z,4.00
2018-11-29T08:17:49.288Z,4.00
2018-11-29T08:20:20.468Z,4.00
2018-11-29T08:22:49.580Z,4.00
2018-11-29T08:25:18.593Z,4.00
2018-11-29T08:27:47.682Z,4.00
2018-11-29T08:30:17.447Z,4.00
2018-11-29T08:32:46.494Z,4.00
2018-11-29T08:35:16.087Z,4.00
2018-11-29T08:37:46.326Z,4.10
2018-11-29T08:40:19.303Z,4.10
2018-11-29T08:42:48.516Z,4.20
2018-11-29T08:45:17.563Z,4.10
2018-11-29T08:47:48.328Z,4.20
2018-11-29T08:50:17.430Z,4.20
2018-11-29T08:52:46.872Z,4.30
2018-11-29T08:55:17.885Z,4.50
2018-11-29T08:57:47.893Z,4.50
2018-11-29T09:00:20.081Z,4.50
2018-11-29T09:02:49.706Z,4.50
2018-11-29T09:05:18.756Z,4.50
2018-11-29T09:07:48.584Z,4.50
2018-11-29T09:10:22.513Z,4.60
2018-11-29T09:12:52.757Z,4.60
2018-11-29T09:15:21.712Z,4.70
2018-11-29T09:17:50.726Z,4.70
2018-11-29T09:20:20.870Z,4.80
2018-11-29T09:22:50.037Z,4.80
2018-11-29T09:25:20.448Z,4.80
2018-11-29T09:27:49.492Z,4.80
2018-11-29T09:30:24.140Z,4.70
2018-11-29T09:32:54.119Z,4.70
2018-11-29T09:35:23.168Z,4.80
2018-11-29T09:37:52.246Z,4.80
2018-11-29T09:40:21.269Z,4.90
2018-11-29T09:42:50.698Z,4.90
2018-11-29T09:45:20.844Z,5.00
2018-11-29T09:47:51.952Z,5.00
2018-11-29T09:50:21.057Z,5.00
2018-11-29T09:52:50.059Z,5.10
2018-11-29T09:55:19.194Z,5.10
2018-11-29T09:57:49.679Z,5.10
2018-11-29T10:00:28.219Z,5.10
2018-11-29T10:03:08.875Z,5.10
2018-11-29T10:05:38.231Z,5.10
2018-11-29T10:08:11.885Z,5.10
2018-11-29T10:10:38.144Z,5.10
2018-11-29T10:13:07.343Z,5.10
2018-11-29T10:15:36.514Z,5.20
2018-11-29T10:18:05.973Z,5.30
2018-11-29T10:20:34.991Z,5.40
2018-11-29T10:23:04.417Z,5.40
2018-11-29T10:25:33.586Z,5.40
2018-11-29T10:28:06.044Z,5.50
2018-11-29T10:30:40.461Z,5.60
2018-11-29T10:33:10.152Z,5.60
2018-11-29T10:35:39.155Z,5.70
2018-11-29T10:38:08.177Z,5.80
2018-11-29T10:40:37.160Z,5.90
2018-11-29T10:43:06.356Z,5.90
2018-11-29T10:45:35.951Z,5.80
2018-11-29T10:48:06.802Z,5.90
2018-11-29T10:50:36.493Z,6.00
2018-11-29T10:53:06.378Z,6.00
2018-11-29T10:55:35.734Z,6.10
2018-11-29T10:58:05.214Z,6.20
2018-11-29T11:00:38.994Z,6.30
2018-11-29T11:03:13.614Z,6.30
2018-11-29T11:05:45.347Z,6.50
2018-11-29T11:08:14.418Z,6.60
2018-11-29T11:10:43.516Z,6.60
2018-11-29T11:13:12.542Z,6.50
2018-11-29T11:15:41.588Z,6.40
2018-11-29T11:18:11.838Z,6.40
2018-11-29T11:20:40.856Z,6.30
2018-11-29T11:23:10.300Z,6.20
2018-11-29T11:25:39.291Z,6.20
2018-11-29T11:28:09.199Z,6.20
2018-11-29T11:30:40.728Z,6.20
2018-11-29T11:33:09.741Z,6.10
2018-11-29T11:35:39.112Z,6.10
2018-11-29T11:38:08.145Z,6.10
2018-11-29T11:40:37.098Z,6.10
2018-11-29T11:43:07.227Z,6.00
2018-11-29T11:45:36.195Z,6.00
2018-11-29T11:48:06.060Z,6.00
2018-11-29T11:50:35.488Z,6.00
2018-11-29T11:53:05.269Z,6.10
2018-11-29T11:55:35.591Z,6.10
2018-11-29T11:58:04.585Z,6.00
2018-11-29T12:00:34.209Z,5.90
2018-11-29T12:03:06.454Z,5.90
2018-11-29T12:05:36.098Z,5.80
2018-11-29T12:08:05.330Z,5.80
2018-11-29T12:10:35.334Z,5.90
2018-11-29T12:13:04.443Z,5.90
2018-11-29T12:15:34.082Z,6.00
2018-11-29T12:18:03.375Z,6.10
2018-11-29T12:20:32.433Z,6.20
2018-11-29T12:23:01.502Z,6.20
2018-11-29T12:25:30.581Z,6.30
2018-11-29T12:27:59.715Z,6.30
2018-11-29T12:30:32.089Z,6.30
2018-11-29T12:33:03.119Z,6.30
2018-11-29T12:35:32.195Z,6.30
2018-11-29T12:38:01.302Z,6.20
2018-11-29T12:40:30.290Z,6.20
2018-11-29T12:42:59.585Z,6.10
2018-11-29T12:45:28.763Z,6.10
2018-11-29T12:47:57.883Z,6.10
2018-11-29T12:50:27.292Z,6.00
2018-11-29T12:52:56.399Z,6.00
2018-11-29T12:55:26.358Z,6.00
2018-11-29T12:58:05.286Z,5.90
2018-11-29T13:00:25.402Z,5.90
2018-11-29T13:02:56.287Z,5.90
2018-11-29T13:05:26.117Z,5.90
2018-11-29T13:07:55.243Z,5.90
2018-11-29T13:10:27.233Z,5.80
2018-11-29T13:12:58.799Z,5.90
2018-11-29T13:15:32.868Z,5.90
2018-11-29T13:18:04.510Z,5.90
2018-11-29T13:20:33.563Z,5.90
2018-11-29T13:23:02.516Z,5.80
2018-11-29T13:25:31.529Z,5.80
2018-11-29T13:28:00.532Z,5.70
2018-11-29T13:30:29.670Z,5.70
2018-11-29T13:32:58.647Z,5.70
2018-11-29T13:35:32.977Z,5.70
2018-11-29T13:38:12.251Z,5.60
2018-11-29T13:40:43.647Z,5.60
2018-11-29T13:43:12.599Z,5.60
2018-11-29T13:45:41.760Z,5.50
2018-11-29T13:48:11.633Z,5.60
2018-11-29T13:50:40.787Z,5.50
2018-11-29T13:53:09.744Z,5.50
2018-11-29T13:55:39.068Z,5.40
2018-11-29T13:58:09.214Z,5.50
2018-11-29T14:00:38.245Z,5.50
2018-11-29T14:03:09.963Z,5.50
2018-11-29T14:05:38.843Z,5.50
2018-11-29T14:08:08.899Z,5.50
2018-11-29T14:10:38.814Z,5.50
2018-11-29T14:13:08.922Z,5.50
2018-11-29T14:15:38.133Z,5.50
2018-11-29T14:18:07.637Z,5.40
2018-11-29T14:20:36.673Z,5.30
2018-11-29T14:23:05.722Z,5.30
2018-11-29T14:25:34.661Z,5.20
2018-11-29T14:28:03.645Z,5.20
2018-11-29T14:30:33.343Z,5.10
2018-11-29T14:33:02.468Z,5.10
2018-11-29T14:35:31.555Z,5.10
2018-11-29T14:38:00.643Z,5.10
2018-11-29T14:40:32.743Z,5.10
2018-11-29T14:43:01.792Z,5.00
2018-11-29T14:45:31.084Z,5.00
2018-11-29T14:48:00.260Z,4.90
2018-11-29T14:50:37.650Z,4.80
2018-11-29T14:53:07.991Z,4.70
2018-11-29T14:55:38.375Z,4.70
2018-11-29T14:58:08.720Z,4.70
2018-11-29T15:00:39.535Z,4.70
2018-11-29T15:03:11.355Z,4.70
2018-11-29T15:05:41.245Z,4.70
2018-11-29T15:08:10.858Z,4.70
2018-11-29T15:10:39.971Z,4.60
2018-11-29T15:13:13.223Z,4.70
2018-11-29T15:15:43.351Z,4.70
2018-11-29T15:18:12.609Z,4.60
2018-11-29T15:20:43.531Z,4.60
2018-11-29T15:23:14.008Z,4.50
2018-11-29T15:25:43.897Z,4.50
2018-11-29T15:28:12.974Z,4.50
2018-11-29T15:30:42.029Z,4.50
2018-11-29T15:33:11.109Z,4.50
2018-11-29T15:35:40.194Z,4.40
2018-11-29T15:38:09.250Z,4.50
2018-11-29T15:40:38.269Z,4.50
2018-11-29T15:43:08.541Z,4.40
2018-11-29T15:45:38.289Z,4.40
2018-11-29T15:48:07.376Z,4.40
2018-11-29T15:50:36.367Z,4.50
2018-11-29T15:53:06.657Z,4.60
2018-11-29T15:55:36.142Z,4.60
2018-11-29T15:58:05.661Z,4.60
2018-11-29T16:00:34.842Z,4.50
2018-11-29T16:03:05.981Z,4.50
2018-11-29T16:05:36.672Z,4.40
2018-11-29T16:08:06.533Z,4.40
2018-11-29T16:10:35.491Z,4.40
2018-11-29T16:13:05.344Z,4.40
2018-11-29T16:15:34.403Z,4.50
2018-11-29T16:18:03.405Z,4.60
2018-11-29T16:20:38.044Z,4.60
2018-11-29T16:23:08.722Z,4.60
2018-11-29T16:25:38.838Z,4.60
2018-11-29T16:28:08.558Z,4.60
2018-11-29T16:30:39.480Z,4.60
2018-11-29T16:33:41.605Z,4.50
2018-11-29T16:36:10.595Z,4.50
2018-11-29T16:38:39.719Z,4.60
2018-11-29T16:41:09.258Z,4.60
2018-11-29T16:43:38.237Z,4.70
2018-11-29T16:46:07.240Z,4.80
2018-11-29T16:48:36.205Z,4.90
2018-11-29T16:51:05.276Z,5.00
2018-11-29T16:53:34.243Z,5.00
2018-11-29T16:56:03.204Z,5.00
2018-11-29T16:58:34.453Z,5.00
2018-11-29T17:01:08.649Z,5.00
2018-11-29T17:03:32.704Z,5.00
2018-11-29T17:06:02.152Z,5.00
2018-11-29T17:08:31.160Z,5.10
2018-11-29T17:11:01.477Z,5.00
2018-11-29T17:13:30.610Z,5.00
2018-11-29T17:16:00.055Z,4.90
2018-11-29T17:18:29.121Z,4.90
2018-11-29T17:20:58.147Z,4.90
2018-11-29T17:23:27.172Z,4.90
2018-11-29T17:25:56.171Z,4.90
2018-11-29T17:28:26.071Z,4.90
2018-11-29T17:30:55.024Z,4.80
2018-11-29T17:33:24.479Z,4.80
2018-11-29T17:35:53.470Z,4.70
2018-11-29T17:38:22.413Z,4.70
2018-11-29T17:40:51.772Z,4.60
2018-11-29T17:43:20.758Z,4.60
2018-11-29T17:45:49.901Z,4.60
2018-11-29T17:48:19.051Z,4.50
2018-11-29T17:50:48.068Z,4.50
2018-11-29T17:53:17.625Z,4.50
2018-11-29T17:55:46.714Z,4.40
2018-11-29T17:58:16.547Z,4.40
2018-11-29T18:00:48.367Z,4.30
2018-11-29T18:03:19.333Z,4.30
2018-11-29T18:05:48.329Z,4.30
2018-11-29T18:08:17.428Z,4.30
2018-11-29T18:10:48.772Z,4.20
2018-11-29T18:13:21.029Z,4.20
2018-11-29T18:15:50.098Z,4.20
2018-11-29T18:18:19.393Z,4.30
2018-11-29T18:20:48.538Z,4.30
2018-11-29T18:23:17.642Z,4.20
2018-11-29T18:25:46.668Z,4.20
2018-11-29T18:28:15.678Z,4.20
2018-11-29T18:30:44.653Z,4.10
2018-11-29T18:33:14.198Z,4.00
2018-11-29T18:35:43.670Z,4.00
2018-11-29T18:38:12.658Z,3.90
2018-11-29T18:40:41.664Z,3.90
2018-11-29T18:43:11.260Z,3.80
2018-11-29T18:45:40.259Z,3.80
2018-11-29T18:48:11.218Z,3.70
2018-11-29T18:50:40.313Z,3.60
2018-11-29T18:53:09.294Z,3.60
2018-11-29T18:55:38.324Z,3.50
2018-11-29T18:58:07.620Z,3.60
2018-11-29T19:00:37.533Z,3.60
2018-11-29T19:03:07.366Z,3.60
2018-11-29T19:05:42.093Z,3.60
2018-11-29T19:08:12.755Z,3.70
2018-11-29T19:10:41.890Z,3.60
2018-11-29T19:13:12.166Z,3.50
2018-11-29T19:15:41.209Z,3.40
2018-11-29T19:18:10.923Z,3.30
2018-11-29T19:20:39.508Z,3.30
2018-11-29T19:23:08.491Z,3.30
2018-11-29T19:25:37.628Z,3.40
2018-11-29T19:28:06.906Z,3.30
2018-11-29T19:30:36.600Z,3.30
2018-11-29T19:33:17.311Z,3.30
2018-11-29T19:35:44.800Z,3.30
2018-11-29T19:38:14.099Z,3.30
2018-11-29T19:40:43.658Z,3.30
2018-11-29T19:43:12.578Z,3.30
2018-11-29T19:45:41.590Z,3.40
2018-11-29T19:48:11.241Z,3.40
2018-11-29T19:50:41.267Z,3.40
2018-11-29T19:53:21.434Z,3.50
2018-11-29T19:55:52.740Z,3.60
2018-11-29T19:58:21.897Z,3.80
2018-11-29T20:00:50.904Z,3.80
2018-11-29T20:03:19.889Z,3.90
2018-11-29T20:05:49.068Z,4.00
2018-11-29T20:08:18.053Z,4.10
2018-11-29T20:10:47.062Z,4.20
2018-11-29T20:13:18.800Z,4.20
2018-11-29T20:15:49.955Z,4.20
2018-11-29T20:18:19.014Z,4.20
2018-11-29T20:20:48.044Z,4.20
2018-11-29T20:23:16.982Z,4.10
2018-11-29T20:25:47.754Z,4.10
2018-11-29T20:28:16.767Z,4.10
2018-11-29T20:30:45.931Z,4.00
2018-11-29T20:33:14.852Z,4.00
2018-11-29T20:35:43.970Z,3.90
2018-11-29T20:38:13.098Z,3.90
2018-11-29T20:40:43.537Z,3.80
2018-11-29T20:43:13.372Z,3.80
2018-11-29T20:45:52.792Z,3.80
2018-11-29T20:48:27.431Z,3.70
2018-11-29T20:51:03.739Z,3.70
2018-11-29T20:53:36.630Z,3.60
2018-11-29T20:56:10.275Z,3.60
2018-11-29T20:58:39.831Z,3.50
2018-11-29T21:01:09.704Z,3.40
2018-11-29T21:03:38.833Z,3.40
2018-11-29T21:06:10.264Z,3.40
2018-11-29T21:08:40.850Z,3.40
2018-11-29T21:11:10.463Z,3.50
2018-11-29T21:13:39.840Z,3.50
2018-11-29T21:16:09.081Z,3.60
2018-11-29T21:18:38.350Z,3.60
2018-11-29T21:21:07.317Z,3.50
2018-11-29T21:23:38.232Z,3.50
2018-11-29T21:26:07.265Z,3.40
2018-11-29T21:28:36.218Z,3.40
2018-11-29T21:31:08.146Z,3.40
2018-11-29T21:33:37.061Z,3.30
2018-11-29T21:36:06.058Z,3.40
2018-11-29T21:38:35.666Z,3.40
2018-11-29T21:41:04.897Z,3.40
2018-11-29T21:43:34.142Z,3.40
2018-11-29T21:46:03.112Z,3.40
2018-11-29T21:48:32.141Z,3.50
2018-11-29T21:51:01.079Z,3.50
2018-11-29T21:53:30.535Z,3.50
2018-11-29T21:55:59.490Z,3.50
2018-11-29T21:58:28.416Z,3.50
2018-11-29T22:00:57.573Z,3.50
2018-11-29T22:03:26.568Z,3.60
2018-11-29T22:05:56.353Z,3.60
2018-11-29T22:08:25.316Z,3.70
2018-11-29T22:10:54.292Z,3.70
2018-11-29T22:13:23.291Z,3.80
2018-11-29T22:15:52.237Z,3.80
2018-11-29T22:18:23.352Z,3.90
2018-11-29T22:20:57.400Z,3.80
2018-11-29T22:23:27.665Z,3.90
2018-11-29T22:25:58.051Z,3.90
2018-11-29T22:28:27.013Z,3.90
2018-11-29T22:30:56.308Z,4.00
2018-11-29T22:33:25.320Z,4.10
2018-11-29T22:35:54.362Z,4.10
2018-11-29T22:38:23.382Z,4.20
2018-11-29T22:40:53.340Z,4.30
2018-11-29T22:43:22.318Z,4.30
2018-11-29T22:45:51.844Z,4.30
2018-11-29T22:48:20.817Z,4.40
2018-11-29T22:50:49.890Z,4.40
2018-11-29T22:53:18.976Z,4.40
2018-11-29T22:55:47.965Z,4.40
2018-11-29T22:58:18.581Z,4.40
2018-11-29T23:00:49.687Z,4.50
2018-11-29T23:03:19.275Z,4.50
2018-11-29T23:05:48.298Z,4.50
2018-11-29T23:08:18.067Z,4.50
2018-11-29T23:10:47.108Z,4.50
2018-11-29T23:13:16.103Z,4.40
2018-11-29T23:15:45.096Z,4.30
2018-11-29T23:18:14.213Z,4.30
2018-11-29T23:20:44.388Z,4.30
2018-11-29T23:23:13.384Z,4.40
2018-11-29T23:25:42.389Z,4.40
2018-11-29T23:28:11.332Z,4.40
2018-11-29T23:30:40.262Z,4.40
2018-11-29T23:33:09.232Z,4.30
2018-11-29T23:35:38.221Z,4.30
2018-11-29T23:38:07.578Z,4.20
2018-11-29T23:40:36.842Z,4.10
2018-11-29T23:43:06.235Z,4.00
2018-11-29T23:45:35.230Z,3.90
2018-11-29T23:48:04.199Z,3.80
2018-11-29T23:50:34.538Z,3.80
2018-11-29T23:53:03.505Z,3.70
2018-11-29T23:55:33.227Z,3.70
2018-11-29T23:58:02.134Z,3.70
